Almirante Schroeders Airport

SCDW · Region of Magallanes, 智利

METAR的历史 SCDW · Almirante Schroeders Airport

下面你可以看到过去几天的METARs。 选择年份以浏览从2007年开始的旧METAR。

2024年4月21日

时间 代码 天气 温度 能见度 天花板 METAR/SPECI
23:00
V
6 °C 10 km+ 15.000 ft 270° 270° 8 kt METAR SCCI 220200Z 27008KT 9999 SCT025 BKN150 06/03 Q1013 NOSIG
22:00
V
7 °C 10 km+ 15.000 ft 280° 280° 13 kt METAR SCCI 220100Z 28013KT 9999 FEW040 BKN150 07/03 Q1013 NOSIG
21:00
V
7 °C 10 km+ 15.000 ft 290° 290° 14 kt METAR SCCI 220000Z 29014KT 9999 FEW040 BKN150 07/03 Q1013 NOSIG
20:00
V
7 °C 10 km+ - 260° 260° 21 kt METAR SCCI 212300Z 26021KT CAVOK 07/03 Q1013 NOSIG
19:00
V
7 °C 10 km+ - 260° 260° 22 kt METAR SCCI 212200Z 26022KT CAVOK 07/03 Q1013 NOSIG
18:00
V
8 °C 10 km+ - 260° 260° 25 kt METAR SCCI 212100Z 26025KT CAVOK 08/02 Q1013 NOSIG
17:00
V
8 °C 10 km+ - 250° 250° 24 kt METAR SCCI 212000Z 25024KT CAVOK 08/03 Q1013 NOSIG
16:00
V
9 °C 10 km+ - 250° 250° 14 kt METAR SCCI 211900Z 25014KT 220V280 CAVOK 09/03 Q1013 NOSIG
15:00
V
9 °C 10 km+ - 260° 260° 17 kt METAR SCCI 211800Z 26017KT 9999 SCT025 09/02 Q1014 NOSIG
14:00
V
9 °C 10 km+ - 270° 270° 22 kt METAR SCCI 211700Z 27022KT 9999 FEW025 SCT060 09/02 Q1014 NOSIG
13:00
V
8 °C 10 km+ - 270° 270° 19 kt METAR SCCI 211600Z 27019KT 9999 FEW025 SCT060 08/02 Q1014 NOSIG
12:00
V
8 °C 10 km+ - 260° 260° 19 kt METAR SCCI 211500Z 26019KT 9999 FEW020 SCT050 08/03 Q1014 NOSIG
11:00
V
7 °C 10 km+ - 270° 270° 15 kt METAR SCCI 211400Z 27015KT CAVOK 07/03 Q1014 NOSIG
10:00
V
6 °C 10 km+ - 280° 280° 13 kt METAR SCCI 211300Z 28013KT CAVOK 06/03 Q1014 NOSIG
09:00
V
5 °C 10 km+ - 260° 260° 15 kt METAR SCCI 211200Z 26015KT CAVOK 05/02 Q1014 NOSIG
08:00
V
5 °C 10 km+ - 270° 270° 15 kt METAR SCCI 211100Z 27015KT 9999 FEW045 05/03 Q1013 NOSIG
07:00
V
5 °C 10 km+ - 260° 260° 11 kt METAR SCCI 211000Z 26011KT 9999 FEW045 05/02 Q1013 NOSIG
06:00
V
5 °C 10 km+ - 260° 260° 9 kt METAR SCCI 210900Z 26009KT 9999 SCT045 05/02 Q1013 NOSIG
05:00
V
4 °C 10 km+ - 250° 250° 14 kt METAR SCCI 210800Z 25014KT 9999 SCT045 04/02 Q1013 NOSIG
04:00
V
3 °C 10 km+ - 260° 260° 13 kt METAR SCCI 210700Z 26013KT 9999 SCT045 03/01 Q1013 NOSIG
03:00
V
3 °C 10 km+ - 260° 260° 12 kt METAR SCCI 210600Z 26012KT 9999 SCT045 03/01 Q1013 NOSIG
02:00
V
3 °C 10 km+ - 260° 260° 10 kt METAR SCCI 210500Z 26010KT 9999 SCT045 03/M02 Q1012 NOSIG
01:00
V
3 °C 10 km+ - 270° 270° 10 kt METAR SCCI 210400Z 27010KT 9999 SCT045 03/M02 Q1012 NOSIG
00:00
V
2 °C 10 km+ - 270° 270° 10 kt METAR SCCI 210300Z 27010KT 9999 SCT045 02/M03 Q1012 NOSIG

2024年4月20日

时间 代码 天气 温度 能见度 天花板 METAR/SPECI
23:00
V
4 °C 10 km+ - 250° 250° 11 kt METAR SCCI 210200Z 25011KT 9999 SCT045 04/M02 Q1012 NOSIG
22:00
V
4 °C 10 km+ 10.000 ft 260° 260° 15 kt METAR SCCI 210100Z 26015KT 9999 SCT045 BKN100 04/M01 Q1011 NOSIG
21:00
V
4 °C 10 km+ 10.000 ft 270° 270° 13 kt METAR SCCI 210000Z 27013KT 9999 SCT045 BKN100 04/M02 Q1011 NOSIG
20:00
V
5 °C 10 km+ 10.000 ft 260° 260° 15 kt METAR SCCI 202300Z 26015KT 9999 SCT045 BKN100 05/M03 Q1010 NOSIG
19:00
V
5 °C 10 km+ 4.500 ft 260° 260° 13 kt METAR SCCI 202200Z 26013KT 9999 BKN045 SCT150 05/M03 Q1009 NOSIG
18:00
V
6 °C 10 km+ 10.000 ft 250° 250° 15 kt METAR SCCI 202100Z 25015KT 9999 SCT045 BKN100 06/M04 Q1008 NOSIG
17:00
V
6 °C 10 km+ 9.000 ft 240° 240° 16 kt METAR SCCI 202000Z 24016KT 9999 SCT035 BKN090 06/M04 Q1007 NOSIG
16:00
V
6 °C 10 km+ 4.300 ft 260° 260° 19 kt METAR SCCI 201900Z 26019KT 9999 BKN043 06/M01 Q1006 NOSIG
15:00
V
6 °C 10 km+ - 270° 270° 21 kt METAR SCCI 201800Z 27021KT 9999 SCT035 SCT080 06/M01 Q1006 NOSIG
14:00
V
6 °C 10 km+ - 250° 250° 20 kt METAR SCCI 201700Z 25020KT 9999 SCT040 SCT080 06/M02 Q1005 NOSIG
13:00
V
6 °C 10 km+ - 260° 260° 21 kt METAR SCCI 201600Z 26021KT 9999 FEW043 SCT080 06/M02 Q1005 NOSIG
12:00
V
5 °C 10 km+ - 260° 260° 20 kt METAR SCCI 201500Z 26020KT 9999 FEW040 SCT080 05/M02 Q1004 NOSIG
11:00
V
4 °C 10 km+ - 260° 260° 17 kt METAR SCCI 201400Z 26017KT 9999 SCT040 SCT080 04/M01 Q1004 NOSIG
10:00
V
3 °C 10 km+ - 260° 260° 17 kt METAR SCCI 201300Z 26017KT 9999 FEW045 SCT080 03/M01 Q1003 NOSIG
09:00
V
3 °C 10 km+ - 260° 260° 15 kt METAR SCCI 201200Z 26015KT 9999 FEW045 SCT080 03/M03 Q1002 NOSIG
08:00
V
2 °C 10 km+ 4.900 ft 260° 260° 14 kt METAR SCCI 201100Z 26014KT 9999 BKN049 SCT170 02/M02 Q1001 NOSIG
07:00
V
2 °C 10 km+ 17.000 ft 270° 270° 14 kt METAR SCCI 201000Z 27014KT 9999 FEW040 BKN170 02/M03 Q1001 NOSIG
06:00
V
2 °C 10 km+ 19.000 ft 260° 260° 14 kt METAR SCCI 200900Z 26014KT 9999 FEW040 BKN190 02/M04 Q1000 NOSIG
05:00
V
2 °C 10 km+ 20.000 ft 270° 270° 13 kt METAR SCCI 200800Z 27013KT 9999 FEW040 SCT180 BKN200 02/M04 Q0999 NOSIG
04:00
V
1 °C 10 km+ 20.000 ft 260° 260° 11 kt METAR SCCI 200700Z 26011KT 9999 FEW040 BKN200 01/M03 Q0999 NOSIG
03:00
V
2 °C 10 km+ - 270° 270° 13 kt METAR SCCI 200600Z 27013KT 9999 FEW040 SCT200 02/M02 Q0999 NOSIG
02:00
V
2 °C 10 km+ 20.000 ft 260° 260° 12 kt METAR SCCI 200500Z 26012KT 9999 FEW040 BKN200 02/M02 Q0998 NOSIG
01:00
V
2 °C 10 km+ 23.000 ft 260° 260° 12 kt METAR SCCI 200400Z 26012KT 9999 FEW040 BKN230 02/M03 Q0998 NOSIG
00:00
V
2 °C 10 km+ - 260° 260° 12 kt METAR SCCI 200300Z 26012KT 9999 FEW040 SCT250 02/M03 Q0998 NOSIG

2024年4月19日

时间 代码 天气 温度 能见度 天花板 METAR/SPECI
23:00
V
2 °C 10 km+ - 240° 240° 9 kt METAR SCCI 200200Z 24009KT 9999 SCT040 02/M03 Q0998 NOSIG
22:00
V
3 °C 10 km+ - 260° 260° 16 kt METAR SCCI 200100Z 26016KT 9999 SCT049 03/M03 Q0997 NOSIG
21:00
V
3 °C 10 km+ - 250° 250° 15 kt METAR SCCI 200000Z 25015KT 9999 SCT040 03/M04 Q0996 NOSIG
20:00
V
3 °C 10 km+ - 260° 260° 14 kt METAR SCCI 192300Z 26014KT 9999 SCT040 03/M03 Q0996 NOSIG
19:00
V
4 °C 10 km+ - 250° 250° 20 kt METAR SCCI 192200Z 25020KT 9999 SCT040 04/M03 Q0995 NOSIG
18:00
V
5 °C 10 km+ 4.000 ft 250° 250° 20 kt METAR SCCI 192100Z 25020KT 9999 BKN040 05/M03 Q0993 NOSIG
17:00
V
6 °C 10 km+ 4.000 ft 260° 260° 22 kt METAR SCCI 192000Z 26022KT 9999 BKN040 06/M04 Q0992 NOSIG
16:00
V
7 °C 10 km+ 10.000 ft 250° 250° 23 - 33 kt METAR SCCI 191900Z 25023G33KT 9999 FEW040 BKN100 07/M04 Q0991 NOSIG
15:00
V
7 °C 10 km+ 9.000 ft 240° 240° 22 kt METAR SCCI 191800Z 24022KT 9999 SCT040 BKN090 07/M01 Q0989 NOSIG
14:00
V
7 °C 10 km+ 6.000 ft 250° 250° 14 kt METAR SCCI 191700Z 25014KT 9999 SCT040 BKN060 07/01 Q0989 NOSIG
13:00
V
7 °C 10 km+ 6.000 ft 250° 250° 13 kt METAR SCCI 191600Z 25013KT 9999 SCT040 BKN060 07/02 Q0987 NOSIG
12:00
V
7 °C 10 km+ 10.000 ft 260° 260° 14 kt METAR SCCI 191500Z 26014KT 9999 SCT030 BKN100 07/03 Q0986 NOSIG
11:00
M
7 °C 10 km+ 3.000 ft 270° 270° 14 kt METAR SCCI 191400Z 27014KT 9999 FEW025 BKN030 07/04 Q0985 NOSIG
10:00
M
7 °C 10 km+ 3.000 ft 270° 270° 11 kt METAR SCCI 191300Z 27011KT 9999 BKN030 07/04 Q0984 NOSIG
09:00
M
8 °C 10 km+ 3.000 ft 220° 220° 6 kt METAR SCCI 191200Z 22006KT 9999 SCT025 BKN030 08/05 Q0982 NOSIG
08:00
M
8 °C 10 km+ 3.000 ft 270° 270° 15 kt METAR SCCI 191100Z 27015KT 9999 BKN030 OVC040 08/06 Q0981 NOSIG
07:00
V
7 °C 10 km+ 4.000 ft 190° 190° 5 kt METAR SCCI 191000Z 19005KT 160V230 9999 -RA OVC040 07/05 Q0981 NOSIG
06:00
V
8 °C 10 km+ 4.000 ft 280° 280° 10 kt METAR SCCI 190900Z 28010KT 9999 -RA OVC040 08/06 Q0981 NOSIG
05:00
V
7 °C 10 km+ 4.000 ft 260° 260° 7 kt METAR SCCI 190800Z 26007KT 9999 -RA OVC040 07/05 Q0981 NOSIG
04:00
V
8 °C 10 km+ 4.000 ft 260° 260° 14 kt METAR SCCI 190700Z 26014KT 9999 -RA OVC040 08/05 Q0981 NOSIG
03:00
V
8 °C 10 km+ 4.000 ft 260° 260° 16 kt METAR SCCI 190600Z 26016KT 9999 -RA BKN040 OVC050 08/05 Q0982 NOSIG
报告变更